Huvudsida
METAR-TAF:

METAR-TAF

Flygplatser :

Vigo-Peinador Airport

Vigo, Spanien

latitud: 42-13N, longitud: 008-38W, höjd: 264 m

Aktuellt väderrapport

Denna rapport gjordes för 33 minuter sedan, klockan 02:30 UTC
Stilla vind
Temperatur 13°C
Fuktighet 82%
Tryck 1020 hPa
Sikt 10 km eller mer
Inga moln under 1 500 m eller inga cumulonimbus

METAR: LEVX 200230Z 00000KT CAVOK 13/10 Q1020 NOSIG

Tid: 05:03 (03:03 UTC)

Väderprognos

Denna rapport gjordes för 4 timmar och 3 minuter sedan, klockan 23:00 UTC
Prognos gäller från 20 kl. 00 UTC till 20 kl. 24 UTC
Vind 8 kt från nordost
Sikt 10 km eller mer
Inga moln under 1 500 m eller inga cumulonimbus

TAF: LEVX 192300Z 2000/2024 04008KT CAVOK TX28/2015Z TN12/2006Z

Aktuella väderrapporter och prognoser från 4000 flygplatser (METAR- och TAF-rapporter).

De tillgängliga stationerna syns som gula och röda prickar på kartan.

För musen över prickarna för att se namnen på stationerna.

Klicka sedan för att få väderrapporter och prognoser.

För att ändra kartan: Klicka på de gröna knapparna med ett svart kors på för att zooma in; den gröna knappen med ett streck på för att zooma ut; eller på de gröna pilarna för angränsande kartor.


METAR-TAF: